sensor_id;sensor_type;location;lat;lon;timestamp;temperature;humidity
2653;DHT22;1336;48.692;9.144;2023-02-28T06:00:46;2.40;97.20
2653;DHT22;1336;48.692;9.144;2023-02-28T06:01:39;2.40;97.20
2653;DHT22;1336;48.692;9.144;2023-02-28T06:02:30;2.40;97.20
2653;DHT22;1336;48.692;9.144;2023-02-28T06:03:21;2.40;97.20
2653;DHT22;1336;48.692;9.144;2023-02-28T06:04:12;2.40;97.20
2653;DHT22;1336;48.692;9.144;2023-02-28T06:05:06;2.40;97.20
2653;DHT22;1336;48.692;9.144;2023-02-28T06:05:58;2.40;97.20
2653;DHT22;1336;48.692;9.144;2023-02-28T06:06:50;2.40;97.20
2653;DHT22;1336;48.692;9.144;2023-02-28T06:07:41;2.40;97.20
2653;DHT22;1336;48.692;9.144;2023-02-28T06:08:33;2.30;97.20
2653;DHT22;1336;48.692;9.144;2023-02-28T06:09:24;2.40;97.20
2653;DHT22;1336;48.692;9.144;2023-02-28T06:10:16;2.30;97.20
2653;DHT22;1336;48.692;9.144;2023-02-28T06:11:06;2.30;97.20
2653;DHT22;1336;48.692;9.144;2023-02-28T06:11:59;2.30;97.20
2653;DHT22;1336;48.692;9.144;2023-02-28T06:12:50;2.40;97.20
2653;DHT22;1336;48.692;9.144;2023-02-28T06:13:42;2.30;97.20
2653;DHT22;1336;48.692;9.144;2023-02-28T06:14:34;2.40;97.20
2653;DHT22;1336;48.692;9.144;2023-02-28T06:15:26;2.40;97.20
2653;DHT22;1336;48.692;9.144;2023-02-28T06:16:18;2.40;97.20
2653;DHT22;1336;48.692;9.144;2023-02-28T06:17:10;2.40;97.20
2653;DHT22;1336;48.692;9.144;2023-02-28T06:18:01;2.40;97.20
2653;DHT22;1336;48.692;9.144;2023-02-28T06:18:53;2.40;97.20
2653;DHT22;1336;48.692;9.144;2023-02-28T06:19:46;2.30;97.20
2653;DHT22;1336;48.692;9.144;2023-02-28T06:20:38;2.30;97.20
2653;DHT22;1336;48.692;9.144;2023-02-28T06:21:29;2.30;97.20
2653;DHT22;1336;48.692;9.144;2023-02-28T06:22:21;2.30;97.20
2653;DHT22;1336;48.692;9.144;2023-02-28T06:23:12;2.30;97.20
2653;DHT22;1336;48.692;9.144;2023-02-28T06:24:04;2.30;97.20
2653;DHT22;1336;48.692;9.144;2023-02-28T06:24:55;2.30;97.20
2653;DHT22;1336;48.692;9.144;2023-02-28T06:25:48;2.30;97.20
2653;DHT22;1336;48.692;9.144;2023-02-28T06:26:39;2.30;97.20
2653;DHT22;1336;48.692;9.144;2023-02-28T06:27:32;2.30;97.20
2653;DHT22;1336;48.692;9.144;2023-02-28T06:28:23;2.30;97.20
2653;DHT22;1336;48.692;9.144;2023-02-28T06:29:14;2.30;97.20
2653;DHT22;1336;48.692;9.144;2023-02-28T06:30:09;2.40;97.20
2653;DHT22;1336;48.692;9.144;2023-02-28T06:31:06;2.40;97.20
2653;DHT22;1336;48.692;9.144;2023-02-28T06:31:59;2.40;97.20
2653;DHT22;1336;48.692;9.144;2023-02-28T06:32:51;2.40;97.20
2653;DHT22;1336;48.692;9.144;2023-02-28T06:33:43;2.40;97.20
2653;DHT22;1336;48.692;9.144;2023-02-28T06:34:35;2.40;97.20
2653;DHT22;1336;48.692;9.144;2023-02-28T06:35:26;2.40;97.20
2653;DHT22;1336;48.692;9.144;2023-02-28T06:36:18;2.40;97.20
2653;DHT22;1336;48.692;9.144;2023-02-28T06:37:09;2.40;97.20
2653;DHT22;1336;48.692;9.144;2023-02-28T06:38:01;2.40;97.20
2653;DHT22;1336;48.692;9.144;2023-02-28T06:38:52;2.40;97.20
2653;DHT22;1336;48.692;9.144;2023-02-28T06:39:45;2.40;97.20
2653;DHT22;1336;48.692;9.144;2023-02-28T06:40:36;2.40;97.20
2653;DHT22;1336;48.692;9.144;2023-02-28T06:41:28;2.40;97.20
2653;DHT22;1336;48.692;9.144;2023-02-28T06:42:20;2.40;97.20
2653;DHT22;1336;48.692;9.144;2023-02-28T06:43:11;2.40;97.20
2653;DHT22;1336;48.692;9.144;2023-02-28T06:44:04;2.40;97.20
2653;DHT22;1336;48.692;9.144;2023-02-28T06:44:56;2.40;97.20
2653;DHT22;1336;48.692;9.144;2023-02-28T06:45:48;2.40;97.20
2653;DHT22;1336;48.692;9.144;2023-02-28T06:46:39;2.40;97.20
2653;DHT22;1336;48.692;9.144;2023-02-28T06:47:32;2.40;97.20
2653;DHT22;1336;48.692;9.144;2023-02-28T06:48:24;2.40;97.20
2653;DHT22;1336;48.692;9.144;2023-02-28T06:49:16;2.40;97.20
2653;DHT22;1336;48.692;9.144;2023-02-28T06:50:08;2.40;97.20
2653;DHT22;1336;48.692;9.144;2023-02-28T06:51:04;2.40;97.20
2653;DHT22;1336;48.692;9.144;2023-02-28T06:51:55;2.40;97.20
2653;DHT22;1336;48.692;9.144;2023-02-28T06:52:47;2.40;97.20
2653;DHT22;1336;48.692;9.144;2023-02-28T06:53:38;2.40;97.20
2653;DHT22;1336;48.692;9.144;2023-02-28T06:54:30;2.40;97.20
2653;DHT22;1336;48.692;9.144;2023-02-28T06:55:21;2.40;97.20
2653;DHT22;1336;48.692;9.144;2023-02-28T06:56:14;2.40;97.20
2653;DHT22;1336;48.692;9.144;2023-02-28T06:57:05;2.40;97.20
2653;DHT22;1336;48.692;9.144;2023-02-28T06:57:57;2.40;97.20
2653;DHT22;1336;48.692;9.144;2023-02-28T06:58:48;2.40;97.20
2653;DHT22;1336;48.692;9.144;2023-02-28T06:59:41;2.40;97.20
2653;DHT22;1336;48.692;9.144;2023-02-28T07:00:31;2.40;97.20
2653;DHT22;1336;48.692;9.144;2023-02-28T07:01:23;2.40;97.20
2653;DHT22;1336;48.692;9.144;2023-02-28T07:02:14;2.40;97.20
2653;DHT22;1336;48.692;9.144;2023-02-28T07:03:07;2.40;97.20
2653;DHT22;1336;48.692;9.144;2023-02-28T07:03:58;2.40;97.20
2653;DHT22;1336;48.692;9.144;2023-02-28T07:04:50;2.40;97.20
2653;DHT22;1336;48.692;9.144;2023-02-28T07:05:41;2.40;97.20
2653;DHT22;1336;48.692;9.144;2023-02-28T07:06:33;2.40;97.20
2653;DHT22;1336;48.692;9.144;2023-02-28T07:07:24;2.40;97.20
2653;DHT22;1336;48.692;9.144;2023-02-28T07:08:16;2.40;97.20
2653;DHT22;1336;48.692;9.144;2023-02-28T07:09:07;2.40;97.20
2653;DHT22;1336;48.692;9.144;2023-02-28T07:09:58;2.40;97.20
2653;DHT22;1336;48.692;9.144;2023-02-28T07:10:52;2.40;97.20
2653;DHT22;1336;48.692;9.144;2023-02-28T07:11:44;2.50;97.20
2653;DHT22;1336;48.692;9.144;2023-02-28T07:12:36;2.40;97.20
2653;DHT22;1336;48.692;9.144;2023-02-28T07:13:28;2.50;97.20
2653;DHT22;1336;48.692;9.144;2023-02-28T07:14:19;2.50;97.20
2653;DHT22;1336;48.692;9.144;2023-02-28T07:15:12;2.50;97.20
2653;DHT22;1336;48.692;9.144;2023-02-28T07:16:05;2.50;97.20
2653;DHT22;1336;48.692;9.144;2023-02-28T07:16:58;2.50;97.20
2653;DHT22;1336;48.692;9.144;2023-02-28T07:17:48;2.50;97.20
2653;DHT22;1336;48.692;9.144;2023-02-28T07:18:41;2.50;97.20
2653;DHT22;1336;48.692;9.144;2023-02-28T07:19:32;2.50;97.20
2653;DHT22;1336;48.692;9.144;2023-02-28T07:20:24;2.50;97.20
2653;DHT22;1336;48.692;9.144;2023-02-28T07:21:15;2.50;97.20
2653;DHT22;1336;48.692;9.144;2023-02-28T07:22:07;2.50;97.20
2653;DHT22;1336;48.692;9.144;2023-02-28T07:22:58;2.50;97.20
2653;DHT22;1336;48.692;9.144;2023-02-28T07:23:50;2.50;97.20
2653;DHT22;1336;48.692;9.144;2023-02-28T07:24:41;2.50;97.20
2653;DHT22;1336;48.692;9.144;2023-02-28T07:25:33;2.50;97.20
2653;DHT22;1336;48.692;9.144;2023-02-28T07:26:24;2.50;97.20
2653;DHT22;1336;48.692;9.144;2023-02-28T07:27:16;2.50;97.20
2653;DHT22;1336;48.692;9.144;2023-02-28T07:28:14;2.50;97.20
2653;DHT22;1336;48.692;9.144;2023-02-28T07:29:06;2.50;97.20
2653;DHT22;1336;48.692;9.144;2023-02-28T07:29:57;2.50;97.20
2653;DHT22;1336;48.692;9.144;2023-02-28T07:30:51;2.50;97.20
2653;DHT22;1336;48.692;9.144;2023-02-28T07:31:42;2.50;97.20
2653;DHT22;1336;48.692;9.144;2023-02-28T07:32:34;2.60;97.20
2653;DHT22;1336;48.692;9.144;2023-02-28T07:33:28;2.60;97.20
2653;DHT22;1336;48.692;9.144;2023-02-28T07:34:21;2.60;97.20
2653;DHT22;1336;48.692;9.144;2023-02-28T07:35:12;2.60;97.20
2653;DHT22;1336;48.692;9.144;2023-02-28T07:36:07;2.60;97.20
2653;DHT22;1336;48.692;9.144;2023-02-28T07:36:58;2.60;97.20
2653;DHT22;1336;48.692;9.144;2023-02-28T07:37:53;2.60;97.20
2653;DHT22;1336;48.692;9.144;2023-02-28T07:38:46;2.60;97.20
2653;DHT22;1336;48.692;9.144;2023-02-28T07:39:38;2.60;97.20
2653;DHT22;1336;48.692;9.144;2023-02-28T07:40:29;2.60;97.20
2653;DHT22;1336;48.692;9.144;2023-02-28T07:41:22;2.60;97.20
2653;DHT22;1336;48.692;9.144;2023-02-28T07:42:14;2.60;97.20
2653;DHT22;1336;48.692;9.144;2023-02-28T07:43:06;2.70;97.20
2653;DHT22;1336;48.692;9.144;2023-02-28T07:43:56;2.70;97.20
2653;DHT22;1336;48.692;9.144;2023-02-28T07:44:49;2.70;97.20
2653;DHT22;1336;48.692;9.144;2023-02-28T07:45:42;2.70;97.20
2653;DHT22;1336;48.692;9.144;2023-02-28T07:46:33;2.70;97.20
2653;DHT22;1336;48.692;9.144;2023-02-28T07:47:25;2.70;97.20
2653;DHT22;1336;48.692;9.144;2023-02-28T07:48:17;2.70;97.20
2653;DHT22;1336;48.692;9.144;2023-02-28T07:49:08;2.70;97.20
2653;DHT22;1336;48.692;9.144;2023-02-28T07:50:01;2.80;97.20
2653;DHT22;1336;48.692;9.144;2023-02-28T07:50:54;2.80;97.20
2653;DHT22;1336;48.692;9.144;2023-02-28T07:51:46;2.80;97.20
2653;DHT22;1336;48.692;9.144;2023-02-28T07:52:37;2.80;97.20
2653;DHT22;1336;48.692;9.144;2023-02-28T07:53:29;2.80;97.20
2653;DHT22;1336;48.692;9.144;2023-02-28T07:54:20;2.80;97.20
2653;DHT22;1336;48.692;9.144;2023-02-28T07:55:12;2.80;97.20
2653;DHT22;1336;48.692;9.144;2023-02-28T07:56:04;2.80;97.20
2653;DHT22;1336;48.692;9.144;2023-02-28T07:56:56;2.80;97.20
2653;DHT22;1336;48.692;9.144;2023-02-28T07:57:47;2.80;97.20
2653;DHT22;1336;48.692;9.144;2023-02-28T07:58:39;2.80;97.20
2653;DHT22;1336;48.692;9.144;2023-02-28T07:59:30;2.80;97.20
2653;DHT22;1336;48.692;9.144;2023-02-28T08:00:22;2.80;97.20
2653;DHT22;1336;48.692;9.144;2023-02-28T08:01:14;2.80;97.20
2653;DHT22;1336;48.692;9.144;2023-02-28T08:02:05;2.80;97.20
2653;DHT22;1336;48.692;9.144;2023-02-28T08:02:56;2.80;97.20
2653;DHT22;1336;48.692;9.144;2023-02-28T08:03:48;2.80;97.20
2653;DHT22;1336;48.692;9.144;2023-02-28T08:04:39;2.80;97.20
2653;DHT22;1336;48.692;9.144;2023-02-28T08:05:32;2.80;97.20
2653;DHT22;1336;48.692;9.144;2023-02-28T08:06:24;2.80;97.20
2653;DHT22;1336;48.692;9.144;2023-02-28T08:07:17;2.80;97.20
2653;DHT22;1336;48.692;9.144;2023-02-28T08:08:08;2.80;97.20
2653;DHT22;1336;48.692;9.144;2023-02-28T08:09:00;2.80;97.20
2653;DHT22;1336;48.692;9.144;2023-02-28T08:09:50;2.80;97.20
2653;DHT22;1336;48.692;9.144;2023-02-28T08:10:43;2.80;97.20
2653;DHT22;1336;48.692;9.144;2023-02-28T08:11:34;2.80;97.20
2653;DHT22;1336;48.692;9.144;2023-02-28T08:12:26;2.80;97.20
2653;DHT22;1336;48.692;9.144;2023-02-28T08:13:17;2.90;97.20
2653;DHT22;1336;48.692;9.144;2023-02-28T08:14:09;2.90;97.20
2653;DHT22;1336;48.692;9.144;2023-02-28T08:15:00;2.90;97.20
2653;DHT22;1336;48.692;9.144;2023-02-28T08:15:51;2.90;97.20
2653;DHT22;1336;48.692;9.144;2023-02-28T08:16:42;2.90;97.20
2653;DHT22;1336;48.692;9.144;2023-02-28T08:17:34;2.90;97.20
2653;DHT22;1336;48.692;9.144;2023-02-28T08:18:24;2.90;97.20
2653;DHT22;1336;48.692;9.144;2023-02-28T08:19:16;2.90;97.20
2653;DHT22;1336;48.692;9.144;2023-02-28T08:20:09;2.90;97.20
2653;DHT22;1336;48.692;9.144;2023-02-28T08:21:07;2.90;97.20
2653;DHT22;1336;48.692;9.144;2023-02-28T08:21:58;2.90;97.20
2653;DHT22;1336;48.692;9.144;2023-02-28T08:22:50;2.90;97.20
2653;DHT22;1336;48.692;9.144;2023-02-28T08:23:40;2.90;97.20
2653;DHT22;1336;48.692;9.144;2023-02-28T08:24:32;3.00;97.20
2653;DHT22;1336;48.692;9.144;2023-02-28T08:25:23;3.00;97.20
2653;DHT22;1336;48.692;9.144;2023-02-28T08:26:15;3.00;97.20
2653;DHT22;1336;48.692;9.144;2023-02-28T08:27:06;3.00;97.20
2653;DHT22;1336;48.692;9.144;2023-02-28T08:27:58;3.00;97.20
2653;DHT22;1336;48.692;9.144;2023-02-28T08:28:48;3.00;97.20
2653;DHT22;1336;48.692;9.144;2023-02-28T08:29:40;3.00;97.20
2653;DHT22;1336;48.692;9.144;2023-02-28T08:30:31;3.00;97.20
2653;DHT22;1336;48.692;9.144;2023-02-28T08:31:23;3.00;97.20
2653;DHT22;1336;48.692;9.144;2023-02-28T08:32:15;3.00;97.20
2653;DHT22;1336;48.692;9.144;2023-02-28T08:33:05;3.00;97.20
2653;DHT22;1336;48.692;9.144;2023-02-28T08:33:57;3.00;97.20
2653;DHT22;1336;48.692;9.144;2023-02-28T08:34:49;3.10;97.20
2653;DHT22;1336;48.692;9.144;2023-02-28T08:35:41;3.10;97.20
2653;DHT22;1336;48.692;9.144;2023-02-28T08:36:33;3.10;97.20
2653;DHT22;1336;48.692;9.144;2023-02-28T08:37:25;3.10;97.20
2653;DHT22;1336;48.692;9.144;2023-02-28T08:38:16;3.10;97.20
2653;DHT22;1336;48.692;9.144;2023-02-28T08:39:08;3.10;97.20
2653;DHT22;1336;48.692;9.144;2023-02-28T08:39:59;3.20;97.20
2653;DHT22;1336;48.692;9.144;2023-02-28T08:40:57;3.20;97.20
2653;DHT22;1336;48.692;9.144;2023-02-28T08:41:48;3.20;97.20
2653;DHT22;1336;48.692;9.144;2023-02-28T08:42:40;3.20;97.20
2653;DHT22;1336;48.692;9.144;2023-02-28T08:43:31;3.20;97.20
2653;DHT22;1336;48.692;9.144;2023-02-28T08:44:22;3.20;97.20
2653;DHT22;1336;48.692;9.144;2023-02-28T08:45:14;3.20;97.20
2653;DHT22;1336;48.692;9.144;2023-02-28T08:46:07;3.20;97.20
2653;DHT22;1336;48.692;9.144;2023-02-28T08:46:58;3.20;97.20
2653;DHT22;1336;48.692;9.144;2023-02-28T08:47:49;3.20;97.20
2653;DHT22;1336;48.692;9.144;2023-02-28T08:48:43;3.20;97.20
2653;DHT22;1336;48.692;9.144;2023-02-28T08:49:35;3.20;97.20
2653;DHT22;1336;48.692;9.144;2023-02-28T08:50:25;3.20;97.20
2653;DHT22;1336;48.692;9.144;2023-02-28T08:51:17;3.20;97.20
2653;DHT22;1336;48.692;9.144;2023-02-28T08:52:13;3.30;97.20
2653;DHT22;1336;48.692;9.144;2023-02-28T08:53:04;3.30;97.20
2653;DHT22;1336;48.692;9.144;2023-02-28T08:53:59;3.30;97.20
2653;DHT22;1336;48.692;9.144;2023-02-28T08:54:50;3.30;97.20
2653;DHT22;1336;48.692;9.144;2023-02-28T08:55:42;3.30;97.20
2653;DHT22;1336;48.692;9.144;2023-02-28T08:56:32;3.30;97.20
2653;DHT22;1336;48.692;9.144;2023-02-28T08:57:25;3.40;97.20
2653;DHT22;1336;48.692;9.144;2023-02-28T08:58:16;3.40;97.20
2653;DHT22;1336;48.692;9.144;2023-02-28T08:59:09;3.40;97.20
2653;DHT22;1336;48.692;9.144;2023-02-28T09:00:00;3.40;97.20
2653;DHT22;1336;48.692;9.144;2023-02-28T09:00:54;3.50;97.20
2653;DHT22;1336;48.692;9.144;2023-02-28T09:01:46;3.50;97.20
2653;DHT22;1336;48.692;9.144;2023-02-28T09:02:38;3.50;97.20
2653;DHT22;1336;48.692;9.144;2023-02-28T09:03:29;3.50;97.20
2653;DHT22;1336;48.692;9.144;2023-02-28T09:04:21;3.60;97.20
2653;DHT22;1336;48.692;9.144;2023-02-28T09:05:12;3.60;97.20
2653;DHT22;1336;48.692;9.144;2023-02-28T09:06:04;3.60;97.20
2653;DHT22;1336;48.692;9.144;2023-02-28T09:06:55;3.60;97.20
2653;DHT22;1336;48.692;9.144;2023-02-28T09:07:49;3.60;97.20
2653;DHT22;1336;48.692;9.144;2023-02-28T09:08:41;3.70;97.20
2653;DHT22;1336;48.692;9.144;2023-02-28T09:09:33;3.60;97.20
2653;DHT22;1336;48.692;9.144;2023-02-28T09:10:23;3.70;97.20
2653;DHT22;1336;48.692;9.144;2023-02-28T09:11:16;3.70;97.20
2653;DHT22;1336;48.692;9.144;2023-02-28T09:12:07;3.70;97.20
2653;DHT22;1336;48.692;9.144;2023-02-28T09:12:59;3.70;97.20
2653;DHT22;1336;48.692;9.144;2023-02-28T09:13:50;3.70;97.20
2653;DHT22;1336;48.692;9.144;2023-02-28T09:14:41;3.70;97.20
2653;DHT22;1336;48.692;9.144;2023-02-28T09:15:32;3.70;97.20
2653;DHT22;1336;48.692;9.144;2023-02-28T09:16:24;3.70;97.20
2653;DHT22;1336;48.692;9.144;2023-02-28T09:17:15;3.70;97.20
2653;DHT22;1336;48.692;9.144;2023-02-28T09:18:07;3.70;97.20
2653;DHT22;1336;48.692;9.144;2023-02-28T09:18:57;3.70;97.20
2653;DHT22;1336;48.692;9.144;2023-02-28T09:19:49;3.70;97.20
2653;DHT22;1336;48.692;9.144;2023-02-28T09:20:40;3.70;97.20
2653;DHT22;1336;48.692;9.144;2023-02-28T09:21:32;3.70;97.20
2653;DHT22;1336;48.692;9.144;2023-02-28T09:22:24;3.80;97.20
2653;DHT22;1336;48.692;9.144;2023-02-28T09:23:17;3.80;97.20
2653;DHT22;1336;48.692;9.144;2023-02-28T09:24:08;3.80;97.20
2653;DHT22;1336;48.692;9.144;2023-02-28T09:25:02;3.80;97.20
2653;DHT22;1336;48.692;9.144;2023-02-28T09:25:54;3.80;97.20
2653;DHT22;1336;48.692;9.144;2023-02-28T09:26:45;3.90;97.20
2653;DHT22;1336;48.692;9.144;2023-02-28T09:27:37;3.90;97.20
2653;DHT22;1336;48.692;9.144;2023-02-28T09:28:27;3.90;97.20
2653;DHT22;1336;48.692;9.144;2023-02-28T09:29:19;3.90;97.20
2653;DHT22;1336;48.692;9.144;2023-02-28T09:30:11;3.90;97.20
2653;DHT22;1336;48.692;9.144;2023-02-28T09:31:03;3.90;97.20
2653;DHT22;1336;48.692;9.144;2023-02-28T09:31:55;3.90;97.20
2653;DHT22;1336;48.692;9.144;2023-02-28T09:32:48;3.90;97.20
2653;DHT22;1336;48.692;9.144;2023-02-28T09:33:42;3.90;97.20
2653;DHT22;1336;48.692;9.144;2023-02-28T09:34:34;4.00;97.20
2653;DHT22;1336;48.692;9.144;2023-02-28T09:35:27;3.90;97.20
2653;DHT22;1336;48.692;9.144;2023-02-28T09:36:19;3.90;97.20
2653;DHT22;1336;48.692;9.144;2023-02-28T09:37:10;3.90;97.20
2653;DHT22;1336;48.692;9.144;2023-02-28T09:38:01;3.90;97.20
2653;DHT22;1336;48.692;9.144;2023-02-28T09:38:54;3.90;97.20
2653;DHT22;1336;48.692;9.144;2023-02-28T09:39:46;4.00;97.20
2653;DHT22;1336;48.692;9.144;2023-02-28T09:40:39;4.00;97.20
2653;DHT22;1336;48.692;9.144;2023-02-28T09:41:38;4.00;97.20
2653;DHT22;1336;48.692;9.144;2023-02-28T09:42:37;4.00;97.20
2653;DHT22;1336;48.692;9.144;2023-02-28T09:43:34;4.00;97.20
2653;DHT22;1336;48.692;9.144;2023-02-28T09:44:28;4.10;97.20
2653;DHT22;1336;48.692;9.144;2023-02-28T09:45:24;4.10;97.20
2653;DHT22;1336;48.692;9.144;2023-02-28T09:46:36;4.10;97.20
2653;DHT22;1336;48.692;9.144;2023-02-28T09:47:32;4.10;97.20
2653;DHT22;1336;48.692;9.144;2023-02-28T09:48:28;4.10;97.20
2653;DHT22;1336;48.692;9.144;2023-02-28T09:49:23;4.20;97.20
2653;DHT22;1336;48.692;9.144;2023-02-28T09:50:21;4.20;97.20
2653;DHT22;1336;48.692;9.144;2023-02-28T09:52:30;4.20;97.20
2653;DHT22;1336;48.692;9.144;2023-02-28T09:53:26;4.30;97.20
2653;DHT22;1336;48.692;9.144;2023-02-28T09:54:30;4.30;97.20
2653;DHT22;1336;48.692;9.144;2023-02-28T09:55:27;4.30;97.20
2653;DHT22;1336;48.692;9.144;2023-02-28T09:56:21;4.30;97.20
2653;DHT22;1336;48.692;9.144;2023-02-28T09:57:23;4.30;97.20
2653;DHT22;1336;48.692;9.144;2023-02-28T09:58:22;4.30;97.20
2653;DHT22;1336;48.692;9.144;2023-02-28T09:59:46;4.40;97.20
2653;DHT22;1336;48.692;9.144;2023-02-28T10:00:43;4.40;97.20
2653;DHT22;1336;48.692;9.144;2023-02-28T10:01:39;4.40;97.20
2653;DHT22;1336;48.692;9.144;2023-02-28T10:03:01;4.40;97.20
2653;DHT22;1336;48.692;9.144;2023-02-28T10:03:57;4.40;97.20
2653;DHT22;1336;48.692;9.144;2023-02-28T10:04:53;4.40;97.20
2653;DHT22;1336;48.692;9.144;2023-02-28T10:05:51;4.40;97.20
2653;DHT22;1336;48.692;9.144;2023-02-28T10:06:47;4.40;97.20
2653;DHT22;1336;48.692;9.144;2023-02-28T10:07:53;4.50;97.20
2653;DHT22;1336;48.692;9.144;2023-02-28T10:08:55;4.50;97.20
2653;DHT22;1336;48.692;9.144;2023-02-28T10:09:53;4.50;97.20
2653;DHT22;1336;48.692;9.144;2023-02-28T10:10:47;4.50;97.20
2653;DHT22;1336;48.692;9.144;2023-02-28T10:11:41;4.50;97.20
2653;DHT22;1336;48.692;9.144;2023-02-28T10:12:36;4.60;97.20
2653;DHT22;1336;48.692;9.144;2023-02-28T10:13:34;4.60;97.20
2653;DHT22;1336;48.692;9.144;2023-02-28T10:14:28;4.60;97.20
2653;DHT22;1336;48.692;9.144;2023-02-28T10:15:23;4.70;97.20
2653;DHT22;1336;48.692;9.144;2023-02-28T10:16:20;4.70;97.20
2653;DHT22;1336;48.692;9.144;2023-02-28T10:17:16;4.70;97.20
2653;DHT22;1336;48.692;9.144;2023-02-28T10:18:13;4.70;97.20
2653;DHT22;1336;48.692;9.144;2023-02-28T10:19:13;4.80;97.20
2653;DHT22;1336;48.692;9.144;2023-02-28T10:20:10;4.80;97.20
2653;DHT22;1336;48.692;9.144;2023-02-28T10:21:04;4.80;97.20
2653;DHT22;1336;48.692;9.144;2023-02-28T10:21:58;4.90;97.20
2653;DHT22;1336;48.692;9.144;2023-02-28T10:22:53;4.90;97.20
2653;DHT22;1336;48.692;9.144;2023-02-28T10:23:48;5.00;97.20
2653;DHT22;1336;48.692;9.144;2023-02-28T10:24:44;5.10;97.20
2653;DHT22;1336;48.692;9.144;2023-02-28T10:25:38;5.20;97.20
2653;DHT22;1336;48.692;9.144;2023-02-28T10:26:31;5.30;97.20
2653;DHT22;1336;48.692;9.144;2023-02-28T10:27:25;5.40;97.20
2653;DHT22;1336;48.692;9.144;2023-02-28T10:28:16;5.50;97.20
2653;DHT22;1336;48.692;9.144;2023-02-28T10:29:09;5.60;97.20
2653;DHT22;1336;48.692;9.144;2023-02-28T10:30:01;5.60;97.20
2653;DHT22;1336;48.692;9.144;2023-02-28T10:30:54;5.70;97.20
2653;DHT22;1336;48.692;9.144;2023-02-28T10:31:45;5.80;97.20
2653;DHT22;1336;48.692;9.144;2023-02-28T10:32:38;5.80;97.20
2653;DHT22;1336;48.692;9.144;2023-02-28T10:33:32;5.80;97.20
2653;DHT22;1336;48.692;9.144;2023-02-28T10:34:24;5.80;97.20
2653;DHT22;1336;48.692;9.144;2023-02-28T10:35:17;5.80;97.20
2653;DHT22;1336;48.692;9.144;2023-02-28T10:36:13;5.80;97.20
2653;DHT22;1336;48.692;9.144;2023-02-28T10:37:07;5.80;97.20
2653;DHT22;1336;48.692;9.144;2023-02-28T10:37:59;5.90;97.20
2653;DHT22;1336;48.692;9.144;2023-02-28T10:38:52;5.90;97.20
2653;DHT22;1336;48.692;9.144;2023-02-28T10:39:45;5.80;97.20
2653;DHT22;1336;48.692;9.144;2023-02-28T10:40:38;5.90;97.20
2653;DHT22;1336;48.692;9.144;2023-02-28T10:41:31;5.90;97.20
2653;DHT22;1336;48.692;9.144;2023-02-28T10:42:26;6.00;97.20
2653;DHT22;1336;48.692;9.144;2023-02-28T10:43:22;6.10;97.20
2653;DHT22;1336;48.692;9.144;2023-02-28T10:44:19;6.20;97.20
2653;DHT22;1336;48.692;9.144;2023-02-28T10:45:12;6.40;97.20
2653;DHT22;1336;48.692;9.144;2023-02-28T10:46:13;6.60;97.20
2653;DHT22;1336;48.692;9.144;2023-02-28T10:47:05;6.70;97.20
2653;DHT22;1336;48.692;9.144;2023-02-28T10:48:04;6.90;97.20
2653;DHT22;1336;48.692;9.144;2023-02-28T10:49:03;7.10;97.20
2653;DHT22;1336;48.692;9.144;2023-02-28T10:49:54;7.20;97.20
2653;DHT22;1336;48.692;9.144;2023-02-28T10:50:52;7.40;97.20
2653;DHT22;1336;48.692;9.144;2023-02-28T10:51:45;7.50;97.20
2653;DHT22;1336;48.692;9.144;2023-02-28T10:52:40;7.50;97.20
2653;DHT22;1336;48.692;9.144;2023-02-28T10:53:38;7.60;97.20
2653;DHT22;1336;48.692;9.144;2023-02-28T10:54:32;7.70;97.20
2653;DHT22;1336;48.692;9.144;2023-02-28T10:55:25;7.80;97.20
2653;DHT22;1336;48.692;9.144;2023-02-28T10:56:19;7.90;97.20
2653;DHT22;1336;48.692;9.144;2023-02-28T10:57:17;8.10;97.20
2653;DHT22;1336;48.692;9.144;2023-02-28T10:58:21;8.30;97.20
2653;DHT22;1336;48.692;9.144;2023-02-28T10:59:29;8.50;97.20
2653;DHT22;1336;48.692;9.144;2023-02-28T11:00:23;8.70;97.20
2653;DHT22;1336;48.692;9.144;2023-02-28T11:01:17;8.80;97.20
2653;DHT22;1336;48.692;9.144;2023-02-28T11:02:32;8.90;97.20
2653;DHT22;1336;48.692;9.144;2023-02-28T11:03:30;9.00;97.20
2653;DHT22;1336;48.692;9.144;2023-02-28T11:04:33;9.10;97.20
2653;DHT22;1336;48.692;9.144;2023-02-28T11:05:29;9.20;97.20
2653;DHT22;1336;48.692;9.144;2023-02-28T11:06:22;9.30;97.20
2653;DHT22;1336;48.692;9.144;2023-02-28T11:07:18;9.50;97.20
2653;DHT22;1336;48.692;9.144;2023-02-28T11:08:13;9.60;97.20
2653;DHT22;1336;48.692;9.144;2023-02-28T11:09:16;9.80;97.20
2653;DHT22;1336;48.692;9.144;2023-02-28T11:10:18;10.00;97.20
2653;DHT22;1336;48.692;9.144;2023-02-28T11:11:10;10.40;97.20
2653;DHT22;1336;48.692;9.144;2023-02-28T11:12:05;10.60;97.20
2653;DHT22;1336;48.692;9.144;2023-02-28T11:12:57;10.80;97.20
2653;DHT22;1336;48.692;9.144;2023-02-28T11:13:52;10.80;97.20
2653;DHT22;1336;48.692;9.144;2023-02-28T11:14:48;10.90;97.20
2653;DHT22;1336;48.692;9.144;2023-02-28T11:15:40;11.00;97.20
2653;DHT22;1336;48.692;9.144;2023-02-28T11:16:32;11.00;97.20
2653;DHT22;1336;48.692;9.144;2023-02-28T11:17:26;12.40;97.00
2653;DHT22;1336;48.692;9.144;2023-02-28T11:18:23;14.10;96.20
2653;DHT22;1336;48.692;9.144;2023-02-28T11:19:19;16.10;94.00
2653;DHT22;1336;48.692;9.144;2023-02-28T11:20:20;17.10;91.00
2653;DHT22;1336;48.692;9.144;2023-02-28T11:21:17;17.80;88.60
2653;DHT22;1336;48.692;9.144;2023-02-28T11:22:10;18.40;87.10
2653;DHT22;1336;48.692;9.144;2023-02-28T11:23:02;18.50;85.40
2653;DHT22;1336;48.692;9.144;2023-02-28T11:24:00;19.30;84.50
2653;DHT22;1336;48.692;9.144;2023-02-28T11:24:55;19.20;83.60
2653;DHT22;1336;48.692;9.144;2023-02-28T11:25:50;19.20;82.30
2653;DHT22;1336;48.692;9.144;2023-02-28T11:26:46;18.90;82.20
2653;DHT22;1336;48.692;9.144;2023-02-28T11:27:47;19.30;82.10
2653;DHT22;1336;48.692;9.144;2023-02-28T11:28:41;20.30;81.60
2653;DHT22;1336;48.692;9.144;2023-02-28T11:29:33;21.40;80.90
2653;DHT22;1336;48.692;9.144;2023-02-28T11:30:28;22.80;79.30
2653;DHT22;1336;48.692;9.144;2023-02-28T11:31:19;24.10;77.80
2653;DHT22;1336;48.692;9.144;2023-02-28T11:32:16;25.20;76.10
2653;DHT22;1336;48.692;9.144;2023-02-28T11:33:25;26.20;73.70
2653;DHT22;1336;48.692;9.144;2023-02-28T11:34:24;27.20;71.30
2653;DHT22;1336;48.692;9.144;2023-02-28T11:35:18;28.00;70.30
2653;DHT22;1336;48.692;9.144;2023-02-28T11:36:14;28.80;69.70
2653;DHT22;1336;48.692;9.144;2023-02-28T11:37:11;29.40;68.30
2653;DHT22;1336;48.692;9.144;2023-02-28T11:38:04;30.20;67.40
2653;DHT22;1336;48.692;9.144;2023-02-28T11:38:58;30.90;66.10
2653;DHT22;1336;48.692;9.144;2023-02-28T11:39:52;31.50;64.40
2653;DHT22;1336;48.692;9.144;2023-02-28T11:40:48;32.10;64.00
2653;DHT22;1336;48.692;9.144;2023-02-28T11:42:05;32.60;62.90
2653;DHT22;1336;48.692;9.144;2023-02-28T11:43:07;33.40;61.90
2653;DHT22;1336;48.692;9.144;2023-02-28T11:44:09;34.00;61.20
2653;DHT22;1336;48.692;9.144;2023-02-28T11:45:19;34.60;60.30
2653;DHT22;1336;48.692;9.144;2023-02-28T11:46:20;35.10;60.00
2653;DHT22;1336;48.692;9.144;2023-02-28T11:47:18;35.60;59.30
2653;DHT22;1336;48.692;9.144;2023-02-28T11:48:17;35.90;58.70
2653;DHT22;1336;48.692;9.144;2023-02-28T11:49:23;36.30;58.40
2653;DHT22;1336;48.692;9.144;2023-02-28T11:50:27;36.50;57.50
2653;DHT22;1336;48.692;9.144;2023-02-28T11:51:26;36.80;57.00
2653;DHT22;1336;48.692;9.144;2023-02-28T11:52:21;37.10;56.90
2653;DHT22;1336;48.692;9.144;2023-02-28T11:53:23;37.40;56.80
2653;DHT22;1336;48.692;9.144;2023-02-28T11:54:47;37.70;56.20
2653;DHT22;1336;48.692;9.144;2023-02-28T11:55:45;36.90;55.10
2653;DHT22;1336;48.692;9.144;2023-02-28T11:56:39;36.80;55.80
2653;DHT22;1336;48.692;9.144;2023-02-28T11:57:38;37.00;55.90